Terminal Aerodrome Forecast
Issued by NWS Charleston, WV

Current Version | Previous Version | Graphics & Text | Print | Product List | Glossary On
Versions: 1 2 3 4 5 6 7 8 9 10 11 12 13 14 15 16 17 18 19 20 21 22 23
940
FTUS41 KRLX 260829 AAA
TAFCRW
TAF AMD
KCRW 260829Z 2608/2706 00000KT P6SM SCT080
     FM261600 26006KT P6SM FEW250
     FM270200 00000KT P6SM SCT060=

USA.gov is the U.S. government's official web portal to all federal, state and local government web resources and services.